Nearby METAR Reports

 

KMTN - Baltimore/Martin, Maryland, USA
Distance from station: SSE 8mi, 13km
Updated: Thu, 17-Apr-2014 2:54am EDT
Clear
Clear
 Wind from NNW
Wind: NNW 3 mph , 6 km/h
Temperature: 37°F , 3°C
Dew Point: 27°F , -3°C
Humidity: 65%
Barometer: 30.58 inHg , 1035.6 hPa
Clouds: Clear
Visibility: 10 miles , 16 km
2014/04/17 06:54 KMTN 170654Z AUTO 33003KT 10SM CLR 03/M03 A3058 RMK AO2
KDMH - Baltimore/Dwntwn, Maryland, USA
Distance from station: SW 12mi, 19km
Updated: Thu, 17-Apr-2014 2:54am EDT

 
Temperature: 41°F , 5°C
Dew Point: 21°F , -6°C
Humidity: 45%
Barometer: 30.56 inHg , 1034.9 hPa
2014/04/17 06:54 KDMH 170654Z AUTO 05/M06 A3056 RMK AO1 SLP347 T00501056
 
KBWI - Balto/Wash Intl, Maryland, USA
Distance from station: SSW 20mi, 33km
Updated: Thu, 17-Apr-2014 2:54am EDT
Clear
Clear
 Wind from calm
Wind: Calm
Temperature: 34°F , 1°C
Dew Point: 27°F , -3°C
Humidity: 75%
Barometer: 30.55 inHg , 1034.5 hPa
Clouds: Clear
Visibility: 10 miles , 16 km
2014/04/17 06:54 KBWI 170654Z 00000KT 10SM CLR 01/M03 A3055 RMK AO2 SLP345 T00061033
KDMW - Carroll Cnty, Maryland, USA
Distance from station: WNW 30mi, 48km
Updated: Thu, 17-Apr-2014 2:55am EDT
Clear
Clear
 Wind from N
Wind: N 3 mph , 6 km/h
Temperature: 32°F , 0°C
Dew Point: 19°F , -7°C
Humidity: 60%
Barometer: 30.54 inHg , 1034.2 hPa
Clouds: Clear
Visibility: 10 miles , 16 km
2014/04/17 06:55 KDMW 170655Z AUTO 35003KT 10SM CLR 00/M07 A3054 RMK AO2
 
KNAK - Annapolis/Naval, Maryland, USA
Distance from station: S 30mi, 48km
Updated: Thu, 17-Apr-2014 2:54am EDT
Clear
Clear
 Wind from calm
Wind: Calm
Temperature: 43°F , 6°C
Dew Point: 32°F , 0°C
Humidity: 66%
Barometer: 30.55 inHg , 1034.5 hPa
Clouds: Clear
Visibility: 10 miles , 16 km
2014/04/17 06:54 KNAK 170654Z AUTO 00000KT 10SM CLR 06/00 A3055 RMK AO2 SLP348 T00560000
KW29 - Stevensville, Maryland, USA
Distance from station: SSE 31mi, 50km
Updated: Thu, 17-Apr-2014 2:35am EDT
Clear
Clear
 Wind from calm
Wind: Calm
Temperature: 36°F , 2°C
Dew Point: 30°F , -1°C
Humidity: 81%
Barometer: 30.56 inHg , 1034.9 hPa
Clouds: Clear
Visibility: 10 miles , 16 km
2014/04/17 06:35 KW29 170635Z AUTO 00000KT 10SM CLR 02/M01 A3056 RMK AO1
 
KCGS - College Park, Maryland, USA
Distance from station: SW 38mi, 61km
Updated: Thu, 17-Apr-2014 2:55am EDT
Clear
Clear
 Wind from calm
Wind: Calm
Temperature: 34°F , 1°C
Dew Point: 30°F , -1°C
Humidity: 87%
Barometer: 30.56 inHg , 1034.9 hPa
Clouds: Clear
Visibility: 10 miles , 16 km
2014/04/17 06:55 KCGS 170655Z AUTO 00000KT 10SM CLR 01/M01 A3056 RMK AO1
KGAI - Gaithersburg, Maryland, USA
Distance from station: WSW 40mi, 65km
Updated: Thu, 17-Apr-2014 2:55am EDT
Clear
Clear
 Wind from calm
Wind: Calm
Temperature: 34°F , 1°C
Dew Point: 19°F , -7°C
Humidity: 56%
Barometer: 30.57 inHg , 1035.2 hPa
Clouds: Clear
Visibility: 10 miles , 16 km
2014/04/17 06:55 KGAI 170655Z AUTO 00000KT 10SM CLR 01/M07 A3057 RMK AO1
 
KTHV - York, Pennsylvania, USA
Distance from station: NNW 40mi, 65km
Updated: Thu, 17-Apr-2014 2:53am EDT
Clear
Clear
 Wind from calm
Wind: Calm
Temperature: 28°F , -2°C
Dew Point: 25°F , -4°C
Humidity: 86%
Barometer: 30.56 inHg , 1034.9 hPa
Clouds: Clear
Visibility: 10 miles , 16 km
2014/04/17 06:53 KTHV 170653Z AUTO 00000KT 10SM CLR M02/M04 A3056 RMK AO2 SLP355 T10221044
KFDK - Frederick, Maryland, USA
Distance from station: W 47mi, 75km
Updated: Thu, 17-Apr-2014 2:30am EDT
Clear
Clear
 Wind from calm
Wind: Calm
Temperature: 32°F , 0°C
Dew Point: 30°F , -1°C
Humidity: 93%
Barometer: 30.59 inHg , 1035.9 hPa
Clouds: Clear
Visibility: 10 miles , 16 km
2014/04/17 06:30 KFDK 170630Z AUTO 00000KT 10SM CLR 00/M01 A3059 RMK AO2
 
KESN - Easton/Newnam, Maryland, USA
Distance from station: SSE 48mi, 78km
Updated: Thu, 17-Apr-2014 2:45am EDT
Clear
Clear
 Wind from calm
Wind: Calm
Temperature: 34°F , 1°C
Dew Point: 32°F , 0°C
Humidity: 93%
Barometer: 30.58 inHg , 1035.6 hPa
Clouds: Clear
Visibility: 10 miles , 16 km
2014/04/17 06:45 KESN 170645Z AUTO 00000KT 10SM CLR 01/00 A3058 RMK AO2 T00090000
KDCA - Washington/Natl, Washington D.c., USA
Distance from station: SW 49mi, 79km
Updated: Thu, 17-Apr-2014 2:52am EDT
Clear
Clear
 Wind from ENE
Wind: ENE 6 mph , 9 km/h
Temperature: 41°F , 5°C
Wind Chill: 37°F , 3°C
Dew Point: 27°F , -3°C
Humidity: 57%
Barometer: 30.56 inHg , 1034.9 hPa
Clouds: Clear
Visibility: 10 miles , 16 km
2014/04/17 06:52 KDCA 170652Z 06005KT 10SM CLR 05/M03 A3056 RMK AO2 SLP348 T00501028 $
 
KLNS - Lancaster, Pennsylvania, USA
Distance from station: N 49mi, 79km
Updated: Thu, 17-Apr-2014 2:53am EDT
Clear
Clear
 Wind from NE
Wind: NE 3 mph , 6 km/h
Temperature: 34°F , 1°C
Dew Point: 19°F , -7°C
Humidity: 56%
Barometer: 30.56 inHg , 1034.9 hPa
Clouds: Clear
Visibility: 10 miles , 16 km
2014/04/17 06:53 KLNS 170653Z 04003KT 10SM CLR 01/M07 A3056 RMK AO2 SLP353 T00061072
KILG - Wilmington, Delaware, USA
Distance from station: ENE 50mi, 81km
Updated: Thu, 17-Apr-2014 2:51am EDT
Clear
Clear
 Wind from NE
Wind: NE 8 mph , 13 km/h
Temperature: 37°F , 3°C
Wind Chill: 31°F , -1°C
Dew Point: 19°F , -7°C
Humidity: 48%
Barometer: 30.58 inHg , 1035.6 hPa
Clouds: Clear
Visibility: 10 miles , 16 km
2014/04/17 06:51 KILG 170651Z 04007KT 10SM CLR 03/M07 A3058 RMK AO2 SLP353 T00281067